Mahlon Sweet Field
KEUG : now visible

Airfield :











YOU CAN JOIN US ON...

 
LOGIN :

Register | Disclaimer

   EN    FR    IT 

 









Legend :    VFR   Marginal VFR   IFR   Intensive IFR   Very Intensive IFR
Visi :
Ceiling :
>= 8 km
>= 3000ft
5 to 8 km
1000 to 3000 ft
1500m to 5 km
500 to 1000 ft
800 to 1500m
200 to 500 ft
< 800m
< 200 ft
Symbols :   Thunderstorms  Fog  Heavy snow  Heavy precipitations  Wind > 20 kt






- Airport Elevation : 374 ft
- IATA code : EUG


KEUG - Mahlon Sweet Field

CURRENT METAR :
  • 240554Z 17006KT 10SM CLR 10/05 A3003 RMK AO2 SLP169 T01000050 10244 20100 53031

EXPIRED METARs :
  • 240454Z 19007KT 10SM FEW250 12/04 A3000 RMK AO2 SLP158 T01170044
  • 240354Z 19005KT 10SM FEW250 13/03 A2996 RMK AO2 SLP146 T01330033
  • 240254Z 20007KT 10SM FEW250 16/04 A2994 RMK AO2 SLP137 T01610044 53014
  • 240154Z 24010KT 10SM FEW250 19/04 A2992 RMK AO2 SLP131 T01940044

TAF KEUG
Valid from the 24 at 06:00 until the 25 at 06:00 UTC


240520Z 2406/2506 19005KT P6SM FEW250
FM241200 20004KT P6SM SCT010
FM242000 29005KT P6SM BKN100
KZSE FIR / North America



MET'MAP, your aeronautical weather chart ! - Copyright ORBIFLY December 2007 - Disclaimer

ORBIFLY MET'MAP TEAM :

Programming & Development : Alexandra Zaïnal
Original concept : Baudouin d'Aumeries
Technical & hardware support : Manuel Goepfert
Assistance : Marc-Olivier Méhu




SOURCES & CREDITS :

   NOAA       Earth
Advisory